Stewart Airport
CZST : now visible

Airfield :











YOU CAN JOIN US ON...

 
LOGIN :

Register | Disclaimer

   EN    FR    IT 

 









Legend :    VFR   Marginal VFR   IFR   Intensive IFR   Very Intensive IFR
Visi :
Ceiling :
>= 8 km
>= 3000ft
5 to 8 km
1000 to 3000 ft
1500m to 5 km
500 to 1000 ft
800 to 1500m
200 to 500 ft
< 800m
< 200 ft
Symbols :   Thunderstorms  Fog  Heavy snow  Heavy precipitations  Wind > 20 kt







- Airport Elevation : 24 ft
- IATA code : ZST


CZST - Stewart

CURRENT METAR :
  • 220100Z VRB02KT 12SM -RA FEW018 SCT030 BKN045 OVC060 14/12 A2961 RMK SC2SC2SC2SC2 LAST STFD OBS/NEXT221300Z SLP027 DENSITY ALT 300FT

EXPIRED METARs :
  • 220000Z 00000KT 10SM FEW005 SCT018 BKN040 OVC065 14/14 A2960 RMK SC1SC3SC3SC1 INTMT -RA/CLIMAT 14.2/11.3/20.8 SLP026 DENSITY ALT 300FT
  • 212300Z VRB02KT 8SM -RA BKN005 OVC030 13/13 A2961 RMK SC6SC2 SLP027 DENSITY ALT 200FT

TAF N/A
No reported NOTAMs for that airfield.



MET'MAP, your aeronautical weather chart ! - Copyright ORBIFLY December 2007 - Disclaimer

ORBIFLY MET'MAP TEAM :

Programming & Development : Alexandra Zaïnal
Concept & Development : Baudouin d'Aumeries
Co-Development & Prog : Marc-Olivier Méhu
Technical & hardware support : Manuel Goepfert

Contact : metmap@orbifly.com




SOURCES & CREDITS :

   NOAA       Earth
Advisory